Easley, SC (29641)

8:54 PM EDT on October 01, 2014 (GMT -0400)
Easley Downtown | Change Station
CLOSE
Current Station
Personal Weather Station
Location: Easley, SC
Elevation: 1040 ft
Nearby Weather Stations

Elev 1040 ft 34.82 °N, 82.60 °W | Updated 6 seconds ago

Clear
Clear
65.1 °F
Feels Like 65.1 °F
N
0.0
Wind Variable Wind from North
Gusts 0.0 mph

Today
High -- | Low -- °F
--% Chance of Precip.
Yesterday
High -- | Low -- °F
Precip. -- in
7:25 AM 7:14 PM
First Quarter, 53% visible
Pressure 29.93 in
Visibility 10.0 miles
Clouds Scattered Clouds 7500 ft
Dew Point 63 °F
Humidity 93%
Rainfall 0.01 in
Snow Depth Not available.
UV 0 out of 12
Pollen 5.10 out of 12
Ozone Good
PM2.5 Good
Flu Activity Not available.
METAR KLQK 010135Z AUTO 00000KT 10SM SCT075 19/19 A2993 RMK AO2 T01940186

More Conditions Fewer Conditions

Pressure 29.93 in
Visibility 10.0 miles
Clouds Scattered Clouds 7500 ft
Dew Point 63 °F
Humidity 93%
Rainfall 0.01 in
Snow Depth Not available.
UV 0 out of 12
Pollen 5.10 out of 12
Ozone Good
PM2.5 Good
Flu Activity Not available.
METAR KLQK 010135Z AUTO 00000KT 10SM SCT075 19/19 A2993 RMK AO2 T01940186

More Conditions Fewer Conditions

10-Day Weather Forecast

Almanac

Astronomy

Oct. 01, 2014 Rise Set
Actual Time 7:25 AM EDT 7:14 PM EDT
Civil Twilight 6:59 AM EDT 7:39 PM EDT
Nautical Twilight 6:30 AM EDT 8:08 PM EDT
Astronomical Twilight 6:01 AM EDT 8:38 PM EDT
Moon 2:14 PM EDT (10/1) No Moon Set
Length of Visible Light 12h 39m
Length of Day
11h 49m
Tomorrow will be 2m 9s shorter.
First Quarter, 53% of the Moon is Illuminated
Today
First Quarter
Oct 8
Full
Oct 15
Last Quarter
Oct 23
New
Oct 30
First Quarter

Today's Extremes

State Highs State Lows

Community

WunderPhotos

Upload Photos

1,758,105 photos uploaded!

WunderBlogs® & News

Nearby

Air Quality

  Air Quality AQ Index Pollutant
Yesterday Good
OZONE
Yesterday Good
PM2.5
Current Good
OZONE
Current Good
PM2.5

Snow Depth

Station Depth Elevation
No new snow has been reported.

Earthquake Activity

City Distance Mag. Time & Date
No recent earthquake activity has been reported nearby.
Minimum magnitude displayed is 2.5.

Coastal Water Temperatures

Place Temperature
No Stations Reporting

Nearby Weather Stations